Orbital elements of SL-6 R/B(2)
| Launched | 10 September 1981 |
| Flight ended | – |
| Launch site | Plesetsk Missile and Space Complex, Russia |
| Owner | Commonwealth of Independent States (former USSR) |
| NORAD ID | 12827 |
| Date fetched |
Epoch osculation |
Inc. [°] |
Ecc. | RA asc node [hr] |
Arg Peri. [°] |
Mean anom [°] |
Mean motion [rev/day] |
Abs. mag |
| Date fetched |
Epoch osculation |
Inc. [°] |
Ecc. | RA asc node [hr] |
Arg Peri. [°] |
Mean anom [°] |
Mean motion [rev/day] |
Abs. mag |
| 2026 May 08 17:57 | 2026 May 05 09:02:01 | 62.9201 | 0.48112 | 1.8948 | 238.8129 | 65.3519 | 5.48840 | 5.743 |
| 2026 May 07 17:58 | 2026 May 05 09:02:01 | 62.9201 | 0.48112 | 1.8948 | 238.8129 | 65.3519 | 5.48840 | 5.743 |
| 2026 May 06 17:57 | 2026 May 05 09:02:01 | 62.9201 | 0.48112 | 1.8948 | 238.8129 | 65.3519 | 5.48840 | 5.743 |
| 2026 May 05 17:57 | 2026 May 05 09:02:01 | 62.9201 | 0.48112 | 1.8948 | 238.8129 | 65.3519 | 5.48840 | 5.743 |
| 2026 May 04 17:57 | 2026 Apr 30 02:13:21 | 62.9203 | 0.48110 | 2.0874 | 238.6941 | 65.3519 | 5.48840 | 5.743 |
| 2026 May 03 17:57 | 2026 Apr 30 02:13:21 | 62.9203 | 0.48110 | 2.0874 | 238.6941 | 65.3519 | 5.48840 | 5.743 |
| 2026 May 02 17:57 | 2026 Apr 30 02:13:21 | 62.9203 | 0.48110 | 2.0874 | 238.6941 | 65.3519 | 5.48840 | 5.743 |
| 2026 May 01 17:56 | 2026 Apr 30 02:13:21 | 62.9203 | 0.48110 | 2.0874 | 238.6941 | 65.3519 | 5.48840 | 5.743 |
| 2026 Apr 30 17:56 | 2026 Apr 30 02:13:21 | 62.9203 | 0.48110 | 2.0874 | 238.6941 | 65.3519 | 5.48840 | 5.743 |
| 2026 Apr 29 17:57 | 2026 Apr 24 01:55:13 | 62.9210 | 0.48108 | 2.3065 | 238.5560 | 65.3519 | 5.48840 | 5.743 |
| 2026 Apr 28 17:56 | 2026 Apr 24 01:55:13 | 62.9210 | 0.48108 | 2.3065 | 238.5560 | 65.3519 | 5.48840 | 5.743 |
| 2026 Apr 27 17:58 | 2026 Apr 24 01:55:13 | 62.9210 | 0.48108 | 2.3065 | 238.5560 | 65.3519 | 5.48840 | 5.743 |
| 2026 Apr 26 17:58 | 2026 Apr 24 01:55:13 | 62.9210 | 0.48108 | 2.3065 | 238.5560 | 65.3519 | 5.48840 | 5.743 |
| 2026 Apr 25 17:58 | 2026 Apr 24 01:55:13 | 62.9210 | 0.48108 | 2.3065 | 238.5560 | 65.3519 | 5.48840 | 5.743 |
| 2026 Apr 24 17:59 | 2026 Apr 24 01:55:13 | 62.9210 | 0.48108 | 2.3065 | 238.5560 | 65.3519 | 5.48840 | 5.743 |
| 2026 Apr 23 17:57 | 2026 Apr 19 03:51:17 | 62.9216 | 0.48105 | 2.4858 | 238.4414 | 65.3519 | 5.48840 | 5.743 |
| 2026 Apr 22 17:57 | 2026 Apr 19 03:51:17 | 62.9216 | 0.48105 | 2.4858 | 238.4414 | 65.3519 | 5.48840 | 5.743 |
| 2026 Apr 21 17:57 | 2026 Apr 19 03:51:17 | 62.9216 | 0.48105 | 2.4858 | 238.4414 | 65.3519 | 5.48840 | 5.743 |
| 2026 Apr 20 17:57 | 2026 Apr 19 03:51:17 | 62.9216 | 0.48105 | 2.4858 | 238.4414 | 65.3519 | 5.48840 | 5.743 |
| 2026 Apr 19 17:58 | 2026 Apr 19 03:51:17 | 62.9216 | 0.48105 | 2.4858 | 238.4414 | 65.3519 | 5.48840 | 5.743 |
| 2026 Apr 18 17:56 | 2026 Apr 13 03:33:10 | 62.9231 | 0.48101 | 2.7048 | 238.3000 | 65.3519 | 5.48840 | 5.743 |
| 2026 Apr 16 17:57 | 2026 Apr 13 03:33:10 | 62.9231 | 0.48101 | 2.7048 | 238.3000 | 65.3519 | 5.48840 | 5.743 |
| 2026 Apr 14 17:57 | 2026 Apr 13 03:33:10 | 62.9231 | 0.48101 | 2.7048 | 238.3000 | 65.3519 | 5.48840 | 5.743 |
| 2026 Apr 13 17:57 | 2026 Apr 13 03:33:10 | 62.9231 | 0.48101 | 2.7048 | 238.3000 | 65.3519 | 5.48840 | 5.743 |
| 2026 Apr 12 17:57 | 2026 Apr 07 03:15:02 | 62.9241 | 0.48097 | 2.9238 | 238.1605 | 65.3519 | 5.48840 | 5.743 |
| 2026 Apr 11 17:57 | 2026 Apr 07 03:15:02 | 62.9241 | 0.48097 | 2.9238 | 238.1605 | 65.3519 | 5.48840 | 5.743 |